Riverside, Texas
Current Conditions -  °F | °C
As of 9:53 PM on Friday 28 Nov 2014 (Local Time) from KUTS Reporting Station
Clear Clear  
Wind Chill: 59°   Ceiling: Unl
Heat Index: 59°   Visibility: 10mi
Dew Point: 55°   Wind: 9mph
Humidity: 87%   Direction: 180°S
Pressure: 30.12"   Gusts: NA
Location:  30.85°N, 95.4°W
Report Text: KUTS 290353Z AUTO 18008KT 10SM CLR 15/13 A3012 RMK AO2 SLP199 T01500128
Loading
Personal Weather Stations






























Interactive Weather Map New forecast layout! Learn more

10-Day Weather Forecast

Advertisements
Track Severe Weather on mobile